Glens Falls, NY

8:26 PM EST on November 27, 2014 (GMT -0500)
Glens Falls, NY | Change Station
CLOSE
Current Station
Personal Weather Station
Location: Glens Falls, NY
Elevation: 331 ft
Nearby Weather Stations

Elev 331 ft 43.31 °N, 73.64 °W | Updated 7 minutes ago

Light Snow
Light Snow
27.7 °F
Feels Like 28 °F
N
0.0
Wind Variable Wind from NE

Today
High -- | Low -- °F
--% Chance of Precip.
Yesterday
High -- | Low -- °F
Precip. -- in
7:02 AM 4:21 PM
Waxing Crescent, 35% visible
Pressure 30.06 in
Visibility 2.5 miles
Clouds Overcast 2500 ft
Windchill 28 °F
Dew Point 26 °F
Humidity 93%
Rainfall 0.02 in
Snow Depth Not available.
UV 0 out of 12
Pollen .10 out of 12
Air Quality Not available.
Flu Activity Not available.
METAR KGFL 280053Z AUTO 05004KT 2 1/2SM -SN OVC025 M02/M05 A3003 RMK AO2 SLP178 P0000 T10171050

More Conditions Fewer Conditions

Pressure 30.06 in
Visibility 2.5 miles
Clouds Overcast 2500 ft
Windchill 28 °F
Dew Point 26 °F
Humidity 93%
Rainfall 0.02 in
Snow Depth Not available.
UV 0 out of 12
Pollen .10 out of 12
Air Quality Not available.
Flu Activity Not available.
METAR KGFL 280053Z AUTO 05004KT 2 1/2SM -SN OVC025 M02/M05 A3003 RMK AO2 SLP178 P0000 T10171050

More Conditions Fewer Conditions

10-Day Weather Forecast

Almanac

Astronomy

Nov. 27, 2014 Rise Set
Actual Time
Civil Twilight
Nautical Twilight
Astronomical Twilight
Moon
Length of Visible Light
Length of Day
Tomorrow will be .
, % of the Moon is Illuminated

Today's Extremes

State Highs State Lows

Community

WunderPhotos

Upload Photos

1,774,148 photos uploaded!

WunderBlogs® & News

Nearby

Air Quality

  Air Quality AQ Index Pollutant
Not available.

Snow Depth

Station Depth Elevation

Earthquake Activity

City Distance Mag. Time & Date
Minimum magnitude displayed is 2.5.

Coastal Water Temperatures

Place Temperature

Nearby Weather Stations